createdAt,value
2022-09-23T00:01:27.068Z,9.80
2022-09-23T00:04:00.822Z,9.80
2022-09-23T00:06:30.715Z,9.80
2022-09-23T00:09:04.767Z,9.80
2022-09-23T00:11:39.307Z,9.90
2022-09-23T00:14:06.681Z,9.80
2022-09-23T00:16:43.014Z,9.80
2022-09-23T00:19:10.335Z,9.80
2022-09-23T00:21:50.901Z,9.80
2022-09-23T00:24:31.751Z,9.80
2022-09-23T00:27:02.497Z,9.80
2022-09-23T00:29:35.901Z,9.70
2022-09-23T00:32:10.875Z,9.70
2022-09-23T00:34:44.960Z,9.70
2022-09-23T00:37:18.725Z,9.70
2022-09-23T00:39:46.941Z,9.70
2022-09-23T00:42:29.504Z,9.70
2022-09-23T00:45:06.846Z,9.70
2022-09-23T00:47:37.101Z,9.70
2022-09-23T00:50:21.213Z,9.70
2022-09-23T00:52:58.680Z,9.70
2022-09-23T00:55:50.814Z,9.70
2022-09-23T00:58:21.955Z,9.70
2022-09-23T01:00:56.004Z,9.70
2022-09-23T01:03:23.648Z,9.60
2022-09-23T01:05:58.961Z,9.60
2022-09-23T01:08:27.576Z,9.60
2022-09-23T01:11:35.846Z,9.50
2022-09-23T01:14:38.803Z,9.50
2022-09-23T01:17:27.707Z,9.40
2022-09-23T01:20:31.078Z,9.40
2022-09-23T01:24:00.027Z,9.40
2022-09-23T01:26:42.845Z,9.40
2022-09-23T01:29:53.800Z,9.40
2022-09-23T01:32:46.148Z,9.40
2022-09-23T01:35:50.913Z,9.50
2022-09-23T01:38:24.952Z,9.50
2022-09-23T01:41:19.868Z,9.50
2022-09-23T01:43:58.618Z,9.50
2022-09-23T01:47:02.877Z,9.50
2022-09-23T01:49:42.963Z,9.60
2022-09-23T01:52:24.893Z,9.60
2022-09-23T01:55:08.968Z,9.60
2022-09-23T01:57:51.806Z,9.60
2022-09-23T02:00:22.629Z,9.70
2022-09-23T02:03:02.738Z,9.70
2022-09-23T02:05:44.858Z,9.70
2022-09-23T02:08:36.048Z,9.70
2022-09-23T02:11:18.798Z,9.70
2022-09-23T02:14:04.942Z,9.60
2022-09-23T02:16:42.897Z,9.60
2022-09-23T02:19:24.901Z,9.60
2022-09-23T02:22:28.899Z,9.60
2022-09-23T02:25:03.813Z,9.50
2022-09-23T02:27:36.247Z,9.50
2022-09-23T02:30:24.094Z,9.50
2022-09-23T02:33:04.908Z,9.40
2022-09-23T02:35:43.889Z,9.40
2022-09-23T02:38:46.433Z,9.40
2022-09-23T02:41:33.828Z,9.30
2022-09-23T02:44:09.268Z,9.30
2022-09-23T02:46:44.917Z,9.20
2022-09-23T02:49:38.652Z,9.20
2022-09-23T02:52:14.752Z,9.20
2022-09-23T02:54:42.152Z,9.10
2022-09-23T02:57:16.922Z,9.10
2022-09-23T02:59:44.814Z,9.10
2022-09-23T03:02:33.952Z,9.10
2022-09-23T03:05:15.232Z,9.10
2022-09-23T03:08:03.202Z,9.10
2022-09-23T03:11:15.988Z,9.10
2022-09-23T03:14:13.718Z,9.10
2022-09-23T03:17:02.602Z,9.10
2022-09-23T03:19:42.784Z,9.10
2022-09-23T03:22:38.833Z,9.10
2022-09-23T03:25:15.824Z,9.20
2022-09-23T03:27:52.746Z,9.20
2022-09-23T03:30:22.078Z,9.10
2022-09-23T03:32:58.829Z,9.10
2022-09-23T03:35:39.790Z,9.10
2022-09-23T03:38:16.759Z,9.10
2022-09-23T03:40:54.891Z,9.10
2022-09-23T03:43:22.511Z,9.10
2022-09-23T03:46:00.884Z,9.10
2022-09-23T03:48:28.447Z,9.00
2022-09-23T03:51:01.911Z,9.10
2022-09-23T03:53:29.410Z,9.10
2022-09-23T03:56:04.083Z,9.10
2022-09-23T03:58:39.867Z,9.10
2022-09-23T04:01:16.626Z,9.10
2022-09-23T04:03:51.023Z,9.10
2022-09-23T04:06:18.187Z,9.10
2022-09-23T04:08:52.157Z,9.20
2022-09-23T04:11:26.978Z,9.20
2022-09-23T04:13:56.767Z,9.30
2022-09-23T04:16:30.973Z,9.30
2022-09-23T04:18:58.718Z,9.40
2022-09-23T04:21:33.921Z,9.40
2022-09-23T04:24:07.503Z,9.40
2022-09-23T04:26:43.810Z,9.50
2022-09-23T04:29:12.706Z,9.50
2022-09-23T04:31:46.877Z,9.50
2022-09-23T04:34:16.178Z,9.40
2022-09-23T04:36:53.789Z,9.40
2022-09-23T04:39:23.936Z,9.40
2022-09-23T04:41:58.189Z,9.40
2022-09-23T04:44:34.082Z,9.30
2022-09-23T04:47:08.084Z,9.30
2022-09-23T04:49:35.768Z,9.30
2022-09-23T04:52:06.020Z,9.30
2022-09-23T04:54:39.990Z,9.30
2022-09-23T04:57:07.573Z,9.20
2022-09-23T04:59:42.160Z,9.10
2022-09-23T05:02:09.615Z,9.10
2022-09-23T05:04:45.013Z,9.10
2022-09-23T05:07:13.212Z,9.10
2022-09-23T05:09:46.812Z,9.20
2022-09-23T05:12:14.132Z,9.20
2022-09-23T05:14:47.852Z,9.20
2022-09-23T05:17:21.912Z,9.20
2022-09-23T05:19:55.818Z,9.20
2022-09-23T05:22:30.006Z,9.20
2022-09-23T05:25:12.112Z,9.10
2022-09-23T05:27:39.566Z,9.00
2022-09-23T05:30:13.861Z,9.00
2022-09-23T05:32:41.212Z,9.00
2022-09-23T05:35:08.817Z,9.00
2022-09-23T05:37:45.931Z,9.00
2022-09-23T05:40:13.373Z,9.00
2022-09-23T05:42:47.976Z,9.10
2022-09-23T05:45:15.362Z,9.10
2022-09-23T05:47:50.817Z,9.10
2022-09-23T05:50:26.594Z,9.20
2022-09-23T05:52:53.957Z,9.20
2022-09-23T05:55:29.847Z,9.20
2022-09-23T05:57:57.356Z,9.20
2022-09-23T06:00:32.978Z,9.20
2022-09-23T06:03:07.057Z,9.20
2022-09-23T06:05:34.623Z,9.20
2022-09-23T06:08:02.007Z,9.10
2022-09-23T06:10:35.831Z,9.10
2022-09-23T06:13:02.977Z,9.10
2022-09-23T06:15:40.104Z,9.10
2022-09-23T06:18:14.138Z,9.20
2022-09-23T06:20:47.903Z,9.20
2022-09-23T06:23:25.682Z,9.30
2022-09-23T06:26:00.878Z,9.40
2022-09-23T06:28:43.123Z,9.40
2022-09-23T06:31:21.919Z,9.50
2022-09-23T06:33:52.747Z,9.60
2022-09-23T06:36:42.391Z,9.60
2022-09-23T06:39:14.741Z,9.60
2022-09-23T06:41:49.193Z,9.70
2022-09-23T06:44:16.547Z,9.80
2022-09-23T06:46:51.051Z,9.80
2022-09-23T06:49:18.512Z,9.90
2022-09-23T06:51:51.917Z,9.90
2022-09-23T06:54:19.114Z,10.00
2022-09-23T06:56:53.919Z,10.00
2022-09-23T06:59:21.051Z,10.10
2022-09-23T07:01:56.058Z,10.20
2022-09-23T07:04:28.614Z,10.20
2022-09-23T07:07:02.974Z,10.30
2022-09-23T07:09:30.318Z,10.30
2022-09-23T07:12:03.887Z,10.40
2022-09-23T07:14:33.911Z,10.40
2022-09-23T07:17:07.792Z,10.40
2022-09-23T07:19:36.368Z,10.50
2022-09-23T07:22:16.953Z,10.50
2022-09-23T07:24:56.406Z,10.60
2022-09-23T07:27:33.837Z,10.60
2022-09-23T07:30:01.044Z,10.70
2022-09-23T07:32:45.273Z,10.70
2022-09-23T07:35:16.997Z,10.80
2022-09-23T07:37:50.862Z,10.90
2022-09-23T07:40:19.011Z,11.00
2022-09-23T07:42:52.987Z,11.00
2022-09-23T07:45:21.436Z,11.00
2022-09-23T07:47:55.977Z,11.10
2022-09-23T07:50:23.530Z,11.10
2022-09-23T07:53:00.046Z,11.10
2022-09-23T07:55:27.288Z,11.10
2022-09-23T07:58:00.959Z,11.20
2022-09-23T08:00:34.789Z,11.40
2022-09-23T08:03:09.296Z,11.50
2022-09-23T08:05:36.900Z,11.60
2022-09-23T08:08:13.929Z,11.60
2022-09-23T08:10:41.272Z,11.60
2022-09-23T08:13:14.868Z,11.70
2022-09-23T08:15:44.704Z,11.70
2022-09-23T08:18:19.040Z,11.70
2022-09-23T08:20:47.961Z,11.80
2022-09-23T08:23:31.321Z,11.90
2022-09-23T08:26:02.097Z,12.10
2022-09-23T08:28:35.938Z,12.40
2022-09-23T08:31:03.631Z,12.70
2022-09-23T08:33:37.939Z,12.90
2022-09-23T08:36:05.623Z,13.10
2022-09-23T08:38:39.938Z,13.20
2022-09-23T08:41:30.314Z,13.30
2022-09-23T08:44:11.939Z,13.40
2022-09-23T08:46:48.285Z,13.60
2022-09-23T08:49:40.898Z,13.70
2022-09-23T08:52:21.418Z,13.90
2022-09-23T08:54:55.671Z,14.00
2022-09-23T08:57:57.517Z,14.20
2022-09-23T09:00:48.933Z,14.30
2022-09-23T09:03:31.018Z,14.50
2022-09-23T09:05:59.418Z,14.70
2022-09-23T09:08:40.084Z,14.90
2022-09-23T09:11:08.539Z,15.10
2022-09-23T09:13:55.828Z,15.30
2022-09-23T09:17:00.347Z,15.50
2022-09-23T09:20:11.918Z,15.80
2022-09-23T09:23:12.238Z,16.00
2022-09-23T09:26:00.837Z,16.30
2022-09-23T09:28:46.474Z,16.60
2022-09-23T09:31:49.958Z,16.70
2022-09-23T09:34:33.061Z,16.90
2022-09-23T09:37:13.924Z,17.00
2022-09-23T09:39:49.324Z,17.10
2022-09-23T09:42:24.783Z,17.10
2022-09-23T09:45:20.978Z,17.00
2022-09-23T09:48:08.256Z,17.00
2022-09-23T09:50:56.382Z,17.10
2022-09-23T09:53:41.859Z,17.10
2022-09-23T09:56:12.678Z,17.20
2022-09-23T09:58:50.995Z,17.40
2022-09-23T10:01:46.656Z,17.40
2022-09-23T10:04:38.906Z,17.50
2022-09-23T10:07:13.563Z,17.50
2022-09-23T10:09:58.340Z,17.50
2022-09-23T10:12:54.227Z,17.50
2022-09-23T10:15:49.768Z,17.70
2022-09-23T10:18:28.185Z,17.80
2022-09-23T10:21:25.490Z,18.00
2022-09-23T10:24:05.095Z,18.10
2022-09-23T10:26:51.119Z,18.20
2022-09-23T10:29:41.788Z,18.30
2022-09-23T10:32:31.178Z,18.40
2022-09-23T10:35:18.937Z,18.50
2022-09-23T10:37:56.532Z,18.70
2022-09-23T10:41:02.996Z,18.80
2022-09-23T10:44:04.191Z,18.80
2022-09-23T10:46:54.809Z,19.00
2022-09-23T10:50:04.300Z,19.30
2022-09-23T10:52:52.853Z,19.50
2022-09-23T10:56:00.745Z,19.80
2022-09-23T10:58:34.885Z,20.00
2022-09-23T11:01:05.695Z,20.20
2022-09-23T11:04:19.915Z,20.30
2022-09-23T11:07:08.506Z,20.40
2022-09-23T11:09:54.898Z,20.50
2022-09-23T11:13:09.900Z,20.50
2022-09-23T11:15:54.251Z,20.70
2022-09-23T11:18:46.533Z,20.80
2022-09-23T11:21:28.022Z,20.90
2022-09-23T11:24:22.854Z,21.00
2022-09-23T11:27:10.940Z,21.10
2022-09-23T11:29:47.865Z,21.30
2022-09-23T11:32:30.237Z,21.30
2022-09-23T11:35:06.957Z,21.40
2022-09-23T11:37:48.024Z,21.30
2022-09-23T11:40:26.114Z,21.30
2022-09-23T11:43:07.882Z,21.30
2022-09-23T11:45:46.920Z,21.40
2022-09-23T11:48:48.879Z,21.40
2022-09-23T11:51:33.961Z,21.50
2022-09-23T11:54:42.081Z,21.60
2022-09-23T11:57:41.788Z,21.70
2022-09-23T12:00:46.611Z,21.70
2022-09-23T12:03:43.612Z,21.60
2022-09-23T12:06:19.845Z,21.60
2022-09-23T12:08:57.444Z,21.70
2022-09-23T12:11:47.926Z,21.80
2022-09-23T12:14:42.996Z,21.90
2022-09-23T12:17:41.133Z,21.80
2022-09-23T12:20:34.927Z,21.80
2022-09-23T12:23:33.188Z,21.90
2022-09-23T12:26:23.219Z,21.90
2022-09-23T12:28:54.540Z,22.00
2022-09-23T12:31:41.142Z,22.00
2022-09-23T12:34:34.789Z,22.10
2022-09-23T12:37:13.011Z,22.10
2022-09-23T12:39:41.220Z,22.10
2022-09-23T12:42:41.830Z,22.00
2022-09-23T12:48:58.318Z,21.80
2022-09-23T12:51:42.131Z,21.80
2022-09-23T12:54:30.003Z,21.70
2022-09-23T12:56:58.518Z,21.70
2022-09-23T13:00:01.017Z,21.70
2022-09-23T13:02:34.715Z,21.70
2022-09-23T13:05:49.943Z,21.70
2022-09-23T13:08:24.813Z,21.70
2022-09-23T13:11:02.921Z,21.60
2022-09-23T13:13:50.928Z,21.50
2022-09-23T13:16:32.551Z,21.40
2022-09-23T13:19:14.009Z,21.40
2022-09-23T13:21:51.789Z,21.30
2022-09-23T13:24:35.286Z,21.30
2022-09-23T13:27:08.982Z,21.30
2022-09-23T13:29:58.276Z,21.20
2022-09-23T13:33:10.055Z,21.20
2022-09-23T13:35:46.254Z,21.10
2022-09-23T13:38:32.974Z,21.10
2022-09-23T13:41:17.212Z,20.90
2022-09-23T13:44:06.630Z,20.80
2022-09-23T13:46:52.994Z,20.70
2022-09-23T13:49:33.315Z,20.60
2022-09-23T13:52:07.958Z,20.60
2022-09-23T13:54:55.598Z,20.50
2022-09-23T13:57:36.174Z,20.40
2022-09-23T14:00:17.565Z,20.40
2022-09-23T14:02:54.024Z,20.30
2022-09-23T14:05:38.815Z,20.30
2022-09-23T14:08:08.159Z,20.20
2022-09-23T14:10:41.970Z,20.10
2022-09-23T14:13:25.985Z,20.10
2022-09-23T14:16:03.181Z,20.00
2022-09-23T14:18:43.707Z,19.90
2022-09-23T14:21:41.922Z,19.80
2022-09-23T14:24:28.116Z,19.70
2022-09-23T14:27:22.950Z,19.60
2022-09-23T14:29:57.958Z,19.50
2022-09-23T14:32:31.068Z,19.40
2022-09-23T14:35:10.890Z,19.30
2022-09-23T14:37:56.656Z,19.30
2022-09-23T14:40:34.017Z,19.20
2022-09-23T14:43:24.211Z,19.10
2022-09-23T14:46:08.191Z,19.00
2022-09-23T14:48:36.911Z,18.90
2022-09-23T14:51:17.335Z,18.90
2022-09-23T14:53:46.947Z,18.80
2022-09-23T14:56:22.120Z,18.80
2022-09-23T14:59:00.450Z,18.70
2022-09-23T15:01:41.400Z,18.70
2022-09-23T15:04:21.928Z,18.70
2022-09-23T15:07:08.211Z,18.60
2022-09-23T15:09:51.995Z,18.60
2022-09-23T15:12:24.455Z,18.60
2022-09-23T15:15:02.033Z,18.50
2022-09-23T15:17:36.306Z,18.50
2022-09-23T15:20:16.186Z,18.40
2022-09-23T15:23:11.003Z,18.40
2022-09-23T15:25:52.192Z,18.40
2022-09-23T15:28:24.163Z,18.30
2022-09-23T15:30:57.977Z,18.30
2022-09-23T15:33:36.013Z,18.20
2022-09-23T15:36:05.386Z,18.10
2022-09-23T15:38:40.232Z,18.10
2022-09-23T15:41:13.986Z,18.00
2022-09-23T15:43:51.207Z,18.00
2022-09-23T15:46:30.189Z,17.90
2022-09-23T15:49:06.550Z,17.90
2022-09-23T15:51:41.965Z,17.80
2022-09-23T15:54:22.460Z,17.80
2022-09-23T15:56:56.399Z,17.80
2022-09-23T15:59:24.282Z,17.70
2022-09-23T16:02:01.382Z,17.70
2022-09-23T16:04:35.062Z,17.60
2022-09-23T16:07:11.245Z,17.60
2022-09-23T16:09:45.387Z,17.50
2022-09-23T16:12:19.488Z,17.50
2022-09-23T16:14:47.396Z,17.40
2022-09-23T16:17:22.347Z,17.30
2022-09-23T16:19:49.928Z,17.30
2022-09-23T16:22:24.032Z,17.20
2022-09-23T16:24:58.147Z,17.20
2022-09-23T16:27:33.037Z,17.10
2022-09-23T16:30:00.703Z,17.10
2022-09-23T16:32:35.278Z,17.00
2022-09-23T16:35:12.068Z,16.90
2022-09-23T16:37:39.528Z,16.90
2022-09-23T16:40:27.243Z,16.80
2022-09-23T16:42:56.167Z,16.70
2022-09-23T16:45:30.245Z,16.60
2022-09-23T16:47:57.908Z,16.60
2022-09-23T16:50:32.444Z,16.50
2022-09-23T16:53:06.010Z,16.40
2022-09-23T16:55:40.050Z,16.40
2022-09-23T16:58:07.167Z,16.30
2022-09-23T17:00:59.064Z,16.20
2022-09-23T17:03:41.572Z,16.10
2022-09-23T17:06:20.067Z,16.00
2022-09-23T17:08:51.785Z,15.90
2022-09-23T17:11:26.012Z,15.90
2022-09-23T17:13:53.870Z,15.80
2022-09-23T17:16:41.046Z,15.70
2022-09-23T17:19:17.966Z,15.70
2022-09-23T17:21:46.243Z,15.60
2022-09-23T17:24:26.260Z,15.60
2022-09-23T17:27:00.354Z,15.50
2022-09-23T17:29:36.097Z,15.50
2022-09-23T17:32:04.946Z,15.40
2022-09-23T17:34:49.008Z,15.40
2022-09-23T17:37:16.328Z,15.30
2022-09-23T17:39:50.286Z,15.30
2022-09-23T17:42:18.617Z,15.20
2022-09-23T17:44:53.074Z,15.20
2022-09-23T17:47:20.740Z,15.20
2022-09-23T17:49:56.052Z,15.10
2022-09-23T17:52:23.175Z,15.10
2022-09-23T17:54:57.900Z,15.10
2022-09-23T17:57:25.222Z,15.10
2022-09-23T18:00:00.964Z,15.10
2022-09-23T18:02:28.259Z,15.10
2022-09-23T18:05:01.935Z,15.00
2022-09-23T18:07:35.935Z,15.00
2022-09-23T18:10:03.270Z,15.00
2022-09-23T18:12:39.998Z,15.00
2022-09-23T18:15:07.799Z,15.00
2022-09-23T18:17:42.078Z,14.90
2022-09-23T18:20:11.609Z,14.90
2022-09-23T18:22:46.389Z,14.80
2022-09-23T18:25:38.054Z,14.80
2022-09-23T18:28:13.139Z,14.70
2022-09-23T18:30:40.659Z,14.60
2022-09-23T18:33:15.519Z,14.60
2022-09-23T18:35:42.742Z,14.60
2022-09-23T18:38:22.977Z,14.60
2022-09-23T18:40:58.249Z,14.60
2022-09-23T18:43:42.371Z,14.60
2022-09-23T18:46:18.048Z,14.50
2022-09-23T18:49:11.231Z,14.50
2022-09-23T18:51:47.382Z,14.50
2022-09-23T18:54:23.378Z,14.50
2022-09-23T18:56:52.890Z,14.50
2022-09-23T18:59:30.902Z,14.50
2022-09-23T19:01:58.599Z,14.50
2022-09-23T19:04:34.238Z,14.50
2022-09-23T19:07:01.752Z,14.50
2022-09-23T19:09:36.227Z,14.50
2022-09-23T19:12:11.087Z,14.50
2022-09-23T19:14:38.826Z,14.40
2022-09-23T19:17:16.100Z,14.40
2022-09-23T19:19:44.397Z,14.40
2022-09-23T19:22:18.100Z,14.30
2022-09-23T19:24:52.396Z,14.30
2022-09-23T19:27:31.984Z,14.30
2022-09-23T19:30:00.370Z,14.30
2022-09-23T19:32:34.045Z,14.40
2022-09-23T19:35:02.770Z,14.60
2022-09-23T19:37:40.371Z,14.70
2022-09-23T19:40:11.222Z,14.60
2022-09-23T19:42:45.263Z,14.60
2022-09-23T19:45:18.974Z,14.60
2022-09-23T19:47:46.267Z,14.50
2022-09-23T19:50:23.273Z,14.50
2022-09-23T19:52:53.551Z,14.40
2022-09-23T19:55:27.050Z,14.40
2022-09-23T19:58:01.020Z,14.40
2022-09-23T20:00:38.650Z,14.40
2022-09-23T20:03:06.159Z,14.40
2022-09-23T20:05:40.232Z,14.30
2022-09-23T20:08:07.725Z,14.30
2022-09-23T20:10:42.159Z,14.20
2022-09-23T20:13:09.597Z,14.20
2022-09-23T20:15:44.628Z,14.20
2022-09-23T20:18:11.825Z,14.10
2022-09-23T20:20:50.813Z,14.10
2022-09-23T20:23:24.148Z,14.00
2022-09-23T20:26:24.048Z,14.00
2022-09-23T20:28:51.770Z,13.90
2022-09-23T20:31:28.418Z,13.90
2022-09-23T20:34:00.860Z,13.90
2022-09-23T20:36:36.091Z,13.80
2022-09-23T20:39:16.216Z,13.80
2022-09-23T20:41:49.987Z,13.80
2022-09-23T20:44:17.202Z,13.70
2022-09-23T20:46:52.762Z,13.70
2022-09-23T20:49:28.047Z,13.70
2022-09-23T20:51:55.561Z,13.70
2022-09-23T20:54:29.140Z,13.70
2022-09-23T20:57:03.113Z,13.60
2022-09-23T20:59:37.262Z,13.60
2022-09-23T21:02:11.122Z,13.60
2022-09-23T21:04:45.413Z,13.50
2022-09-23T21:07:19.199Z,13.50
2022-09-23T21:09:46.412Z,13.50
2022-09-23T21:12:20.079Z,13.40
2022-09-23T21:14:54.020Z,13.40
2022-09-23T21:17:21.690Z,13.30
2022-09-23T21:19:55.089Z,13.30
2022-09-23T21:22:22.907Z,13.20
2022-09-23T21:25:26.908Z,13.20
2022-09-23T21:28:02.243Z,13.20
2022-09-23T21:30:36.191Z,13.20
2022-09-23T21:33:03.792Z,13.10
2022-09-23T21:35:38.055Z,13.10
2022-09-23T21:38:05.182Z,13.00
2022-09-23T21:40:57.056Z,13.00
2022-09-23T21:43:29.791Z,13.00
2022-09-23T21:46:06.004Z,12.90
2022-09-23T21:48:36.076Z,12.90
2022-09-23T21:51:13.204Z,12.90
2022-09-23T21:53:41.468Z,12.90
2022-09-23T21:56:22.935Z,12.80
2022-09-23T21:58:51.454Z,12.80
2022-09-23T22:01:31.218Z,12.80
2022-09-23T22:04:05.592Z,12.80
2022-09-23T22:06:39.294Z,12.80
2022-09-23T22:09:09.749Z,12.70
2022-09-23T22:12:06.563Z,12.70
2022-09-23T22:14:34.091Z,12.70
2022-09-23T22:17:09.913Z,12.70
2022-09-23T22:19:44.360Z,12.70
2022-09-23T22:22:22.278Z,12.60
2022-09-23T22:24:55.920Z,12.60
2022-09-23T22:27:30.080Z,12.60
2022-09-23T22:30:15.723Z,12.60
2022-09-23T22:32:55.205Z,12.60
2022-09-23T22:35:29.060Z,12.60
2022-09-23T22:37:56.501Z,12.50
2022-09-23T22:40:31.141Z,12.50
2022-09-23T22:42:58.436Z,12.50
2022-09-23T22:45:32.383Z,12.50
2022-09-23T22:48:04.433Z,12.40
2022-09-23T22:50:53.441Z,12.40
2022-09-23T22:53:20.725Z,12.40
2022-09-23T22:56:05.994Z,12.40
2022-09-23T22:58:41.124Z,12.40
2022-09-23T23:01:17.236Z,12.40
2022-09-23T23:03:46.417Z,12.40
2022-09-23T23:06:13.841Z,12.40
2022-09-23T23:08:47.999Z,12.40
2022-09-23T23:11:15.233Z,12.40
2022-09-23T23:16:46.310Z,12.40
2022-09-23T23:19:17.444Z,12.40
2022-09-23T23:21:53.287Z,12.40
2022-09-23T23:24:36.219Z,12.40
2022-09-23T23:27:16.230Z,12.40
2022-09-23T23:29:50.464Z,12.40
2022-09-23T23:32:24.296Z,12.30
2022-09-23T23:34:51.515Z,12.30
2022-09-23T23:37:25.197Z,12.30
2022-09-23T23:39:52.518Z,12.30
2022-09-23T23:42:26.125Z,12.30
2022-09-23T23:44:53.507Z,12.20
2022-09-23T23:47:28.016Z,12.20
2022-09-23T23:49:55.890Z,12.30
2022-09-23T23:52:30.182Z,12.40
2022-09-23T23:54:57.436Z,12.30
2022-09-23T23:57:31.066Z,12.40
2022-09-23T23:59:59.111Z,12.40
